Enter the Airport ICAO Code

Search by Airport or City

Current Weather

LEBB | Bilbao Airport

Bilbao, Basque Country, Spain

Last Update 23 Minutes Ago

Partly Cloudy Sky

Temperature of 24 ºC

Light to Moderate Winds from NorthWest

Temperature

24 ºC

Dew Point Temperature

18 ºC

Relative Humidity

69.32 %

Wind Direction

NorthWest (300º, Ranging from 260º to 340º)

Wind Velocity

17 km/h (09 kt)

Gusts

None

Visibility

Greater than 10 Kilometers

Sea Level Pressure

1024 hPa (Hectopascals)

Layers of Clouds

30% to 60% of Sky Covered from 762 mts (2500 ft) Above Ground Level.

METAR LEBB 131230Z 30009KT 260V340 9999 SCT025 24/18 Q1024 NOSIG

Weather Forecast

LEBB | Bilbao Airport

Bilbao, Basque Country, Spain

Forecast valid for the next 23 Hours

From now on it is expected:

Sky with Few Clouds

Light to Moderate Winds from NorthWest

Maximum Temperature

26 ºC in 0 Hours

Minimum Temperature

16 ºC in 16 Hours

TAF LEBB 131100Z 1312/1412 33009KT 9999 FEW025 TX26/1313Z TN16/1405Z